createdAt,value
2024-02-08T00:00:00.683Z,11.3
2024-02-08T00:01:00.728Z,11.3
2024-02-08T00:02:00.837Z,11.3
2024-02-08T00:03:00.895Z,11.3
2024-02-08T00:04:00.853Z,13.7
2024-02-08T00:05:01.435Z,13.7
2024-02-08T00:06:00.739Z,13.7
2024-02-08T00:07:01.044Z,13.7
2024-02-08T00:08:00.768Z,13.7
2024-02-08T00:09:01.109Z,12.3
2024-02-08T00:10:00.725Z,12.3
2024-02-08T00:11:00.871Z,12.3
2024-02-08T00:12:00.669Z,12.3
2024-02-08T00:13:00.704Z,12.3
2024-02-08T00:14:00.884Z,11.1
2024-02-08T00:15:00.779Z,11.1
2024-02-08T00:16:01.183Z,11.1
2024-02-08T00:17:01.615Z,11.1
2024-02-08T00:18:00.977Z,11.1
2024-02-08T00:19:00.776Z,11.8
2024-02-08T00:20:01.255Z,11.8
2024-02-08T00:21:00.737Z,11.8
2024-02-08T00:22:00.699Z,11.8
2024-02-08T00:23:00.861Z,11.8
2024-02-08T00:24:00.881Z,12.3
2024-02-08T00:25:00.775Z,12.3
2024-02-08T00:26:00.761Z,12.3
2024-02-08T00:27:00.683Z,12.3
2024-02-08T00:28:00.766Z,12.3
2024-02-08T00:29:00.737Z,10.1
2024-02-08T00:30:00.773Z,10.1
2024-02-08T00:31:03.753Z,10.1
2024-02-08T00:32:00.769Z,10.1
2024-02-08T00:33:00.710Z,10.1
2024-02-08T00:34:00.831Z,11.7
2024-02-08T00:35:00.835Z,11.7
2024-02-08T00:36:00.776Z,11.7
2024-02-08T00:37:00.769Z,11.7
2024-02-08T00:38:01.285Z,11.7
2024-02-08T00:39:00.763Z,10.1
2024-02-08T00:40:00.735Z,10.1
2024-02-08T00:41:00.825Z,10.1
2024-02-08T00:42:00.718Z,10.1
2024-02-08T00:43:03.562Z,10.1
2024-02-08T00:44:00.807Z,9.9
2024-02-08T00:45:00.774Z,9.9
2024-02-08T00:46:00.743Z,9.9
2024-02-08T00:47:00.849Z,9.9
2024-02-08T00:48:01.684Z,9.9
2024-02-08T00:49:00.781Z,10.2
2024-02-08T00:50:00.904Z,10.2
2024-02-08T00:51:00.679Z,10.2
2024-02-08T00:52:00.753Z,10.2
2024-02-08T00:53:00.736Z,10.2
2024-02-08T00:54:01.064Z,9.7
2024-02-08T00:55:01.013Z,9.7
2024-02-08T00:56:00.765Z,9.7
2024-02-08T00:57:01.698Z,9.7
2024-02-08T00:58:01.338Z,9.7
2024-02-08T00:59:00.763Z,8.6
2024-02-08T01:00:01.414Z,8.6
2024-02-08T01:01:01.084Z,8.6
2024-02-08T01:02:00.771Z,8.6
2024-02-08T01:03:00.803Z,8.6
2024-02-08T01:04:00.918Z,10.0
2024-02-08T01:05:00.950Z,10.0
2024-02-08T01:06:00.778Z,10.0
2024-02-08T01:07:01.512Z,10.0
2024-02-08T01:08:01.029Z,10.0
2024-02-08T01:09:00.732Z,10.3
2024-02-08T01:10:01.603Z,10.3
2024-02-08T01:11:00.709Z,10.3
2024-02-08T01:12:00.788Z,10.3
2024-02-08T01:13:00.782Z,10.3
2024-02-08T01:14:00.861Z,8.8
2024-02-08T01:15:02.196Z,8.8
2024-02-08T01:16:00.875Z,8.8
2024-02-08T01:17:00.837Z,8.8
2024-02-08T01:18:00.797Z,8.8
2024-02-08T01:19:00.821Z,10.7
2024-02-08T01:20:01.049Z,10.7
2024-02-08T01:21:00.677Z,10.7
2024-02-08T01:22:00.852Z,10.7
2024-02-08T01:23:00.767Z,10.7
2024-02-08T01:24:00.754Z,9.1
2024-02-08T01:25:00.824Z,9.1
2024-02-08T01:26:00.824Z,9.1
2024-02-08T01:27:01.235Z,9.1
2024-02-08T01:28:00.834Z,9.1
2024-02-08T01:29:00.744Z,10.3
2024-02-08T01:30:01.136Z,10.3
2024-02-08T01:31:00.762Z,10.3
2024-02-08T01:32:00.755Z,10.3
2024-02-08T01:33:01.614Z,10.3
2024-02-08T01:34:00.773Z,10.5
2024-02-08T01:35:00.793Z,10.5
2024-02-08T01:36:00.713Z,10.5
2024-02-08T01:37:00.682Z,10.5
2024-02-08T01:38:00.785Z,10.5
2024-02-08T01:39:00.756Z,9.5
2024-02-08T01:40:00.680Z,9.5
2024-02-08T01:41:00.831Z,9.5
2024-02-08T01:42:00.765Z,9.5
2024-02-08T01:43:00.948Z,9.5
2024-02-08T01:44:04.689Z,11.1
2024-02-08T01:45:33.025Z,11.1
2024-02-08T01:46:01.285Z,11.1
2024-02-08T01:47:00.777Z,11.1
2024-02-08T01:48:03.198Z,12.0
2024-02-08T01:49:00.804Z,12.0
2024-02-08T01:50:00.812Z,12.0
2024-02-08T01:51:02.461Z,12.0
2024-02-08T01:52:02.257Z,12.0
2024-02-08T01:53:01.730Z,11.0
2024-02-08T01:54:00.918Z,11.0
2024-02-08T01:55:00.901Z,11.0
2024-02-08T01:56:01.058Z,11.0
2024-02-08T01:57:00.935Z,11.0
2024-02-08T01:58:03.985Z,11.4
2024-02-08T01:59:01.061Z,11.4
2024-02-08T02:00:00.947Z,11.4
2024-02-08T02:01:00.800Z,11.4
2024-02-08T02:02:01.194Z,11.4
2024-02-08T02:03:01.314Z,11.0
2024-02-08T02:04:00.871Z,11.0
2024-02-08T02:05:00.840Z,11.0
2024-02-08T02:06:01.368Z,11.0
2024-02-08T02:07:00.924Z,11.0
2024-02-08T02:08:00.894Z,13.5
2024-02-08T02:09:02.070Z,13.5
2024-02-08T02:10:00.875Z,13.5
2024-02-08T02:11:09.881Z,13.5
2024-02-08T02:12:05.780Z,13.5
2024-02-08T02:13:04.818Z,11.5
2024-02-08T02:14:01.434Z,11.5
2024-02-08T02:15:01.413Z,11.5
2024-02-08T02:16:01.202Z,11.5
2024-02-08T02:17:18.124Z,11.5
2024-02-08T02:18:01.610Z,12.2
2024-02-08T02:19:00.717Z,12.2
2024-02-08T02:20:00.824Z,12.2
2024-02-08T02:21:00.729Z,12.2
2024-02-08T02:22:00.727Z,12.2
2024-02-08T02:23:01.137Z,13.1
2024-02-08T02:24:01.220Z,13.1
2024-02-08T02:25:01.351Z,13.1
2024-02-08T02:26:01.082Z,13.1
2024-02-08T02:27:00.876Z,13.1
2024-02-08T02:28:01.224Z,13.3
2024-02-08T02:29:01.488Z,13.3
2024-02-08T02:30:01.048Z,13.3
2024-02-08T02:31:00.933Z,13.3
2024-02-08T02:32:01.862Z,13.3
2024-02-08T02:33:03.617Z,11.3
2024-02-08T02:34:00.806Z,11.3
2024-02-08T02:35:01.723Z,11.3
2024-02-08T02:36:02.641Z,11.3
2024-02-08T02:37:00.783Z,11.3
2024-02-08T02:38:00.829Z,12.6
2024-02-08T02:39:00.764Z,12.6
2024-02-08T02:40:00.709Z,12.6
2024-02-08T02:41:01.081Z,12.6
2024-02-08T02:42:00.989Z,12.6
2024-02-08T02:43:00.731Z,14.4
2024-02-08T02:44:00.763Z,14.4
2024-02-08T02:45:00.776Z,14.4
2024-02-08T02:46:01.050Z,14.4
2024-02-08T02:47:00.879Z,14.4
2024-02-08T02:48:00.811Z,10.7
2024-02-08T02:49:00.934Z,10.7
2024-02-08T02:50:00.801Z,10.7
2024-02-08T02:51:01.709Z,10.7
2024-02-08T02:52:00.741Z,10.7
2024-02-08T02:53:00.800Z,12.3
2024-02-08T02:54:00.679Z,12.3
2024-02-08T02:55:00.728Z,12.3
2024-02-08T02:56:00.767Z,12.3
2024-02-08T02:57:00.768Z,12.3
2024-02-08T02:58:00.861Z,10.5
2024-02-08T02:59:00.806Z,10.5
2024-02-08T03:00:00.680Z,10.5
2024-02-08T03:01:01.872Z,10.5
2024-02-08T03:02:00.790Z,10.5
2024-02-08T03:03:02.242Z,12.8
2024-02-08T03:04:00.848Z,12.8
2024-02-08T03:05:00.846Z,12.8
2024-02-08T03:06:00.688Z,12.8
2024-02-08T03:07:00.854Z,12.8
2024-02-08T03:08:01.094Z,12.8
2024-02-08T03:09:00.804Z,12.8
2024-02-08T03:10:00.931Z,12.8
2024-02-08T03:11:00.711Z,12.8
2024-02-08T03:12:00.925Z,12.8
2024-02-08T03:13:00.704Z,11.7
2024-02-08T03:14:00.799Z,11.7
2024-02-08T03:15:00.719Z,11.7
2024-02-08T03:16:00.739Z,11.7
2024-02-08T03:17:00.820Z,11.7
2024-02-08T03:18:00.694Z,12.6
2024-02-08T03:19:00.781Z,12.6
2024-02-08T03:20:00.772Z,12.6
2024-02-08T03:21:00.782Z,12.6
2024-02-08T03:22:00.704Z,12.6
2024-02-08T03:23:00.761Z,12.7
2024-02-08T03:24:00.750Z,12.7
2024-02-08T03:25:01.643Z,12.7
2024-02-08T03:26:00.729Z,12.7
2024-02-08T03:27:00.755Z,12.7
2024-02-08T03:28:00.771Z,11.9
2024-02-08T03:29:00.718Z,11.9
2024-02-08T03:30:00.915Z,11.9
2024-02-08T03:31:00.731Z,11.9
2024-02-08T03:32:00.870Z,11.9
2024-02-08T03:33:00.986Z,13.3
2024-02-08T03:34:00.719Z,13.3
2024-02-08T03:35:00.810Z,13.3
2024-02-08T03:36:00.895Z,13.3
2024-02-08T03:37:01.536Z,13.3
2024-02-08T03:38:01.057Z,12.8
2024-02-08T03:39:00.683Z,12.8
2024-02-08T03:40:00.745Z,12.8
2024-02-08T03:41:01.513Z,12.8
2024-02-08T03:42:02.226Z,12.8
2024-02-08T03:43:01.505Z,11.4
2024-02-08T03:44:00.789Z,11.4
2024-02-08T03:45:00.734Z,11.4
2024-02-08T03:46:00.730Z,11.4
2024-02-08T03:47:02.012Z,11.4
2024-02-08T03:48:01.723Z,13.2
2024-02-08T03:49:00.803Z,13.2
2024-02-08T03:50:00.794Z,13.2
2024-02-08T03:51:00.674Z,13.2
2024-02-08T03:52:01.733Z,13.2
2024-02-08T03:53:04.642Z,12.9
2024-02-08T03:54:00.928Z,12.9
2024-02-08T03:55:00.749Z,12.9
2024-02-08T03:56:00.785Z,12.9
2024-02-08T03:57:00.731Z,12.9
2024-02-08T03:58:00.683Z,13.2
2024-02-08T03:59:00.800Z,13.2
2024-02-08T04:00:00.754Z,13.2
2024-02-08T04:01:00.773Z,13.2
2024-02-08T04:02:02.511Z,13.2
2024-02-08T04:03:02.852Z,14.1
2024-02-08T04:04:01.231Z,14.1
2024-02-08T04:05:01.769Z,14.1
2024-02-08T04:06:01.166Z,14.1
2024-02-08T04:07:02.129Z,14.1
2024-02-08T04:08:01.164Z,12.6
2024-02-08T04:09:00.697Z,12.6
2024-02-08T04:10:00.855Z,12.6
2024-02-08T04:11:00.946Z,12.6
2024-02-08T04:12:00.724Z,12.6
2024-02-08T04:13:01.470Z,13.2
2024-02-08T04:14:00.726Z,13.2
2024-02-08T04:15:01.350Z,13.2
2024-02-08T04:16:00.963Z,13.2
2024-02-08T04:17:00.789Z,13.2
2024-02-08T04:18:00.756Z,11.6
2024-02-08T04:19:00.807Z,11.6
2024-02-08T04:20:00.738Z,11.6
2024-02-08T04:21:00.731Z,11.6
2024-02-08T04:22:00.787Z,11.6
2024-02-08T04:23:05.116Z,10.8
2024-02-08T04:24:00.760Z,10.8
2024-02-08T04:25:00.747Z,10.8
2024-02-08T04:26:02.355Z,10.8
2024-02-08T04:27:00.879Z,10.8
2024-02-08T04:28:00.677Z,13.2
2024-02-08T04:29:00.697Z,13.2
2024-02-08T04:30:00.722Z,13.2
2024-02-08T04:31:00.673Z,13.2
2024-02-08T04:32:00.834Z,13.2
2024-02-08T04:33:00.849Z,15.9
2024-02-08T04:34:00.912Z,15.9
2024-02-08T04:35:00.809Z,15.9
2024-02-08T04:36:00.818Z,15.9
2024-02-08T04:37:00.761Z,15.9
2024-02-08T04:38:01.700Z,10.3
2024-02-08T04:39:00.743Z,10.3
2024-02-08T04:40:00.817Z,10.3
2024-02-08T04:41:02.087Z,10.3
2024-02-08T04:42:00.694Z,10.3
2024-02-08T04:43:00.909Z,10.6
2024-02-08T04:44:00.781Z,10.6
2024-02-08T04:45:00.830Z,10.6
2024-02-08T04:46:00.749Z,10.6
2024-02-08T04:47:00.855Z,10.6
2024-02-08T04:48:00.828Z,12.6
2024-02-08T04:49:00.889Z,12.6
2024-02-08T04:50:00.758Z,12.6
2024-02-08T04:51:00.734Z,12.6
2024-02-08T04:52:00.678Z,12.6
2024-02-08T04:53:00.751Z,10.7
2024-02-08T04:54:00.684Z,10.7
2024-02-08T04:55:00.773Z,10.7
2024-02-08T04:56:00.732Z,10.7
2024-02-08T04:57:00.774Z,10.7
2024-02-08T04:58:27.554Z,13.3
2024-02-08T05:00:01.047Z,13.3
2024-02-08T05:01:00.861Z,13.3
2024-02-08T05:02:00.732Z,13.3
2024-02-08T05:03:00.756Z,12.3
2024-02-08T05:04:00.727Z,12.3
2024-02-08T05:05:00.886Z,12.3
2024-02-08T05:06:02.610Z,12.3
2024-02-08T05:07:01.123Z,12.3
2024-02-08T05:08:00.765Z,15.7
2024-02-08T05:09:01.094Z,15.7
2024-02-08T05:10:00.749Z,15.7
2024-02-08T05:11:00.723Z,15.7
2024-02-08T05:12:01.305Z,15.7
2024-02-08T05:13:00.752Z,15.2
2024-02-08T05:14:00.674Z,15.2
2024-02-08T05:15:00.740Z,15.2
2024-02-08T05:16:00.958Z,15.2
2024-02-08T05:17:01.358Z,15.2
2024-02-08T05:18:00.770Z,13.4
2024-02-08T05:19:00.960Z,13.4
2024-02-08T05:20:00.925Z,13.4
2024-02-08T05:21:00.694Z,13.4
2024-02-08T05:22:01.228Z,13.4
2024-02-08T05:23:00.756Z,12.2
2024-02-08T05:24:00.743Z,12.2
2024-02-08T05:25:00.751Z,12.2
2024-02-08T05:26:00.689Z,12.2
2024-02-08T05:27:00.720Z,12.2
2024-02-08T05:28:00.771Z,17.1
2024-02-08T05:29:00.711Z,17.1
2024-02-08T05:30:00.677Z,17.1
2024-02-08T05:31:00.749Z,17.1
2024-02-08T05:32:00.691Z,17.1
2024-02-08T05:33:00.810Z,11.8
2024-02-08T05:34:00.914Z,11.8
2024-02-08T05:35:00.947Z,11.8
2024-02-08T05:36:00.952Z,11.8
2024-02-08T05:37:00.744Z,11.8
2024-02-08T05:38:00.686Z,13.9
2024-02-08T05:39:00.729Z,13.9
2024-02-08T05:40:00.863Z,13.9
2024-02-08T05:41:01.986Z,13.9
2024-02-08T05:42:00.697Z,13.9
2024-02-08T05:43:00.865Z,11.9
2024-02-08T05:44:01.100Z,11.9
2024-02-08T05:45:00.735Z,11.9
2024-02-08T05:46:00.726Z,11.9
2024-02-08T05:47:00.918Z,11.9
2024-02-08T05:48:00.716Z,14.7
2024-02-08T05:49:00.754Z,14.7
2024-02-08T05:50:00.915Z,14.7
2024-02-08T05:51:00.663Z,14.7
2024-02-08T05:52:00.812Z,14.7
2024-02-08T05:53:01.024Z,11.2
2024-02-08T05:54:01.283Z,11.2
2024-02-08T05:55:00.787Z,11.2
2024-02-08T05:56:00.759Z,11.2
2024-02-08T05:57:00.764Z,11.2
2024-02-08T05:58:01.638Z,11.9
2024-02-08T05:59:00.676Z,11.9
2024-02-08T06:00:00.683Z,11.9
2024-02-08T06:01:00.763Z,11.9
2024-02-08T06:02:01.223Z,11.9
2024-02-08T06:03:01.322Z,14.4
2024-02-08T06:04:00.882Z,14.4
2024-02-08T06:05:00.764Z,14.4
2024-02-08T06:06:00.888Z,14.4
2024-02-08T06:07:01.281Z,14.4
2024-02-08T06:08:00.983Z,9.0
2024-02-08T06:09:01.413Z,9.0
2024-02-08T06:10:00.797Z,9.0
2024-02-08T06:11:00.684Z,9.0
2024-02-08T06:12:00.728Z,9.0
2024-02-08T06:13:00.982Z,11.5
2024-02-08T06:14:01.072Z,11.5
2024-02-08T06:15:01.002Z,11.5
2024-02-08T06:16:00.692Z,11.5
2024-02-08T06:17:00.708Z,11.5
2024-02-08T06:18:01.220Z,10.8
2024-02-08T06:19:00.926Z,10.8
2024-02-08T06:20:00.987Z,10.8
2024-02-08T06:21:01.102Z,10.8
2024-02-08T06:22:00.712Z,10.8
2024-02-08T06:23:00.709Z,14.3
2024-02-08T06:24:00.731Z,14.3
2024-02-08T06:25:00.809Z,14.3
2024-02-08T06:26:01.735Z,14.3
2024-02-08T06:27:00.693Z,14.3
2024-02-08T06:28:00.984Z,12.6
2024-02-08T06:29:00.729Z,12.6
2024-02-08T06:30:00.800Z,12.6
2024-02-08T06:31:00.729Z,12.6
2024-02-08T06:32:00.882Z,12.6
2024-02-08T06:33:00.738Z,12.2
2024-02-08T06:34:00.829Z,12.2
2024-02-08T06:35:02.913Z,12.2
2024-02-08T06:36:00.739Z,12.2
2024-02-08T06:37:01.043Z,12.2
2024-02-08T06:38:00.761Z,10.3
2024-02-08T06:39:01.028Z,10.3
2024-02-08T06:40:00.757Z,10.3
2024-02-08T06:41:00.755Z,10.3
2024-02-08T06:42:00.743Z,10.3
2024-02-08T06:43:00.784Z,15.1
2024-02-08T06:44:00.702Z,15.1
2024-02-08T06:45:00.735Z,15.1
2024-02-08T06:46:00.690Z,15.1
2024-02-08T06:47:01.960Z,15.1
2024-02-08T06:48:01.337Z,14.5
2024-02-08T06:49:00.792Z,14.5
2024-02-08T06:50:00.858Z,14.5
2024-02-08T06:51:02.991Z,14.5
2024-02-08T06:52:00.722Z,14.5
2024-02-08T06:53:00.776Z,15.4
2024-02-08T06:54:00.682Z,15.4
2024-02-08T06:55:00.801Z,15.4
2024-02-08T06:56:00.736Z,15.4
2024-02-08T06:57:00.733Z,15.4
2024-02-08T06:58:00.745Z,15.6
2024-02-08T06:59:00.733Z,15.6
2024-02-08T07:00:00.682Z,15.6
2024-02-08T07:01:00.826Z,15.6
2024-02-08T07:02:00.878Z,15.6
2024-02-08T07:03:00.745Z,17.3
2024-02-08T07:04:00.758Z,17.3
2024-02-08T07:05:00.848Z,17.3
2024-02-08T07:06:00.671Z,17.3
2024-02-08T07:07:00.843Z,17.3
2024-02-08T07:08:01.368Z,15.0
2024-02-08T07:09:00.695Z,15.0
2024-02-08T07:10:00.812Z,15.0
2024-02-08T07:11:00.779Z,15.0
2024-02-08T07:12:00.747Z,15.0
2024-02-08T07:13:00.725Z,20.7
2024-02-08T07:14:01.343Z,20.7
2024-02-08T07:15:00.731Z,20.7
2024-02-08T07:16:00.757Z,20.7
2024-02-08T07:17:00.676Z,20.7
2024-02-08T07:18:00.834Z,20.5
2024-02-08T07:19:06.572Z,20.5
2024-02-08T07:20:00.847Z,20.5
2024-02-08T07:21:00.734Z,20.5
2024-02-08T07:22:00.738Z,20.5
2024-02-08T07:23:00.770Z,18.4
2024-02-08T07:24:00.747Z,18.4
2024-02-08T07:25:03.648Z,18.4
2024-02-08T07:26:00.742Z,18.4
2024-02-08T07:27:00.699Z,18.4
2024-02-08T07:28:00.707Z,18.3
2024-02-08T07:29:01.393Z,18.3
2024-02-08T07:30:00.757Z,18.3
2024-02-08T07:31:00.777Z,18.3
2024-02-08T07:32:00.688Z,18.3
2024-02-08T07:33:00.756Z,17.1
2024-02-08T07:34:00.787Z,17.1
2024-02-08T07:35:01.126Z,17.1
2024-02-08T07:36:00.841Z,17.1
2024-02-08T07:37:00.727Z,17.1
2024-02-08T07:38:00.831Z,18.3
2024-02-08T07:39:00.705Z,18.3
2024-02-08T07:40:00.825Z,18.3
2024-02-08T07:41:00.797Z,18.3
2024-02-08T07:42:01.452Z,18.3
2024-02-08T07:43:01.522Z,21.0
2024-02-08T07:44:00.735Z,21.0
2024-02-08T07:45:01.503Z,21.0
2024-02-08T07:46:00.783Z,21.0
2024-02-08T07:47:00.754Z,21.0
2024-02-08T07:48:00.732Z,15.5
2024-02-08T07:49:01.052Z,15.5
2024-02-08T07:50:00.953Z,15.5
2024-02-08T07:51:00.733Z,15.5
2024-02-08T07:52:00.814Z,15.5
2024-02-08T07:53:00.746Z,18.0
2024-02-08T07:54:00.799Z,18.0
2024-02-08T07:55:00.816Z,18.0
2024-02-08T07:56:02.264Z,18.0
2024-02-08T07:57:00.692Z,17.7
2024-02-08T07:58:01.462Z,17.7
2024-02-08T07:59:00.691Z,17.7
2024-02-08T08:00:00.730Z,17.7
2024-02-08T08:01:00.861Z,17.7
2024-02-08T08:02:00.769Z,16.8
2024-02-08T08:03:02.118Z,16.8
2024-02-08T08:04:00.850Z,16.8
2024-02-08T08:05:00.970Z,16.8
2024-02-08T08:06:00.798Z,16.8
2024-02-08T08:07:02.177Z,17.3
2024-02-08T08:08:00.697Z,17.3
2024-02-08T08:09:02.322Z,17.3
2024-02-08T08:10:00.753Z,17.3
2024-02-08T08:11:04.513Z,17.3
2024-02-08T08:12:00.727Z,15.3
2024-02-08T08:13:00.747Z,15.3
2024-02-08T08:14:00.695Z,15.3
2024-02-08T08:15:00.750Z,15.3
2024-02-08T08:16:00.704Z,15.3
2024-02-08T08:17:00.742Z,15.5
2024-02-08T08:18:00.818Z,15.5
2024-02-08T08:19:03.044Z,15.5
2024-02-08T08:20:00.934Z,15.5
2024-02-08T08:21:00.767Z,15.5
2024-02-08T08:22:00.852Z,18.1
2024-02-08T08:23:01.703Z,18.1
2024-02-08T08:24:00.675Z,18.1
2024-02-08T08:25:00.726Z,18.1
2024-02-08T08:26:00.728Z,18.1
2024-02-08T08:27:02.132Z,17.7
2024-02-08T08:28:00.832Z,17.7
2024-02-08T08:29:00.804Z,17.7
2024-02-08T08:30:00.989Z,17.7
2024-02-08T08:31:00.696Z,17.7
2024-02-08T08:32:00.778Z,21.9
2024-02-08T08:33:00.940Z,21.9
2024-02-08T08:34:02.193Z,21.9
2024-02-08T08:35:03.370Z,21.9
2024-02-08T08:36:01.666Z,21.9
2024-02-08T08:37:00.746Z,16.1
2024-02-08T08:38:01.834Z,16.1
2024-02-08T08:39:00.715Z,16.1
2024-02-08T08:40:00.809Z,16.1
2024-02-08T08:41:00.874Z,16.1
2024-02-08T08:42:00.751Z,19.8
2024-02-08T08:43:00.799Z,19.8
2024-02-08T08:44:00.770Z,19.8
2024-02-08T08:45:00.733Z,19.8
2024-02-08T08:46:01.431Z,19.8
2024-02-08T08:47:00.692Z,17.3
2024-02-08T08:48:00.758Z,17.3
2024-02-08T08:49:00.892Z,17.3
2024-02-08T08:50:00.868Z,17.3
2024-02-08T08:51:02.268Z,17.3
2024-02-08T08:52:00.956Z,19.0
2024-02-08T08:53:01.384Z,19.0
2024-02-08T08:54:00.678Z,19.0
2024-02-08T08:55:00.731Z,19.0
2024-02-08T08:56:00.706Z,19.0
2024-02-08T08:57:00.718Z,14.3
2024-02-08T08:58:00.818Z,14.3
2024-02-08T08:59:00.848Z,14.3
2024-02-08T09:00:00.962Z,14.3
2024-02-08T09:01:01.113Z,14.3
2024-02-08T09:02:00.837Z,16.2
2024-02-08T09:03:02.551Z,16.2
2024-02-08T09:04:00.785Z,16.2
2024-02-08T09:05:00.801Z,16.2
2024-02-08T09:06:00.696Z,16.2
2024-02-08T09:07:00.848Z,15.6
2024-02-08T09:08:01.106Z,15.6
2024-02-08T09:09:00.681Z,15.6
2024-02-08T09:10:00.903Z,15.6
2024-02-08T09:11:03.057Z,15.6
2024-02-08T09:12:00.986Z,15.2
2024-02-08T09:13:02.035Z,15.2
2024-02-08T09:14:00.705Z,15.2
2024-02-08T09:15:00.849Z,15.2
2024-02-08T09:16:00.761Z,15.2
2024-02-08T09:17:23.300Z,18.9
2024-02-08T09:18:00.747Z,18.9
2024-02-08T09:19:01.487Z,18.9
2024-02-08T09:20:01.288Z,18.9
2024-02-08T09:21:01.136Z,18.9
2024-02-08T09:22:00.730Z,14.1
2024-02-08T09:23:00.707Z,14.1
2024-02-08T09:24:03.223Z,14.1
2024-02-08T09:25:00.736Z,14.1
2024-02-08T09:26:00.727Z,14.1
2024-02-08T09:27:00.747Z,17.2
2024-02-08T09:28:00.706Z,17.2
2024-02-08T09:29:00.725Z,17.2
2024-02-08T09:30:00.708Z,17.2
2024-02-08T09:31:00.839Z,17.2
2024-02-08T09:32:02.284Z,15.9
2024-02-08T09:33:00.763Z,15.9
2024-02-08T09:34:00.859Z,15.9
2024-02-08T09:35:00.753Z,15.9
2024-02-08T09:36:01.756Z,15.9
2024-02-08T09:37:00.767Z,16.2
2024-02-08T09:38:00.740Z,16.2
2024-02-08T09:39:00.740Z,16.2
2024-02-08T09:40:01.255Z,16.2
2024-02-08T09:41:00.852Z,16.2
2024-02-08T09:42:00.820Z,14.7
2024-02-08T09:43:00.851Z,14.7
2024-02-08T09:44:00.870Z,14.7
2024-02-08T09:45:00.785Z,14.7
2024-02-08T09:46:03.004Z,14.7
2024-02-08T09:47:01.127Z,16.3
2024-02-08T09:48:02.428Z,16.3
2024-02-08T09:49:03.907Z,16.3
2024-02-08T09:50:02.623Z,16.3
2024-02-08T09:51:00.894Z,16.3
2024-02-08T09:52:01.284Z,16.8
2024-02-08T09:53:02.182Z,16.8
2024-02-08T09:54:02.098Z,16.8
2024-02-08T09:55:00.824Z,16.8
2024-02-08T09:56:01.025Z,16.8
2024-02-08T09:57:03.361Z,16.2
2024-02-08T09:58:02.711Z,16.2
2024-02-08T09:59:09.991Z,16.2
2024-02-08T10:00:01.989Z,16.2
2024-02-08T10:01:02.015Z,16.2
2024-02-08T10:02:01.183Z,14.2
2024-02-08T10:03:01.894Z,14.2
2024-02-08T10:04:04.158Z,14.2
2024-02-08T10:05:00.963Z,14.2
2024-02-08T10:06:01.932Z,14.2
2024-02-08T10:07:00.857Z,14.6
2024-02-08T10:08:00.982Z,14.6
2024-02-08T10:09:01.454Z,14.6
2024-02-08T10:10:04.068Z,14.6
2024-02-08T10:11:03.661Z,14.6
2024-02-08T10:12:02.783Z,14.2
2024-02-08T10:13:00.745Z,14.2
2024-02-08T10:14:00.685Z,14.2
2024-02-08T10:15:00.873Z,14.2
2024-02-08T10:16:00.697Z,14.2
2024-02-08T10:17:17.311Z,14.5
2024-02-08T10:18:03.147Z,14.5
2024-02-08T10:19:00.749Z,14.5
2024-02-08T10:20:01.699Z,14.5
2024-02-08T10:21:09.445Z,14.5
2024-02-08T10:22:01.400Z,14.1
2024-02-08T10:23:00.836Z,14.1
2024-02-08T10:24:01.465Z,14.1
2024-02-08T10:25:00.856Z,14.1
2024-02-08T10:26:00.890Z,14.1
2024-02-08T10:27:01.011Z,12.0
2024-02-08T10:28:00.757Z,12.0
2024-02-08T10:29:05.686Z,12.0
2024-02-08T10:30:01.182Z,12.0
2024-02-08T10:31:02.036Z,12.0
2024-02-08T10:32:00.774Z,11.7
2024-02-08T10:33:00.863Z,11.7
2024-02-08T10:34:00.827Z,11.7
2024-02-08T10:35:04.909Z,11.7
2024-02-08T10:36:00.674Z,11.7
2024-02-08T10:37:00.720Z,12.3
2024-02-08T10:38:00.750Z,12.3
2024-02-08T10:39:02.696Z,12.3
2024-02-08T10:40:01.188Z,12.3
2024-02-08T10:41:00.864Z,12.3
2024-02-08T10:42:01.263Z,12.8
2024-02-08T10:43:05.224Z,12.8
2024-02-08T10:44:00.799Z,12.8
2024-02-08T10:45:03.186Z,12.8
2024-02-08T10:46:01.797Z,12.8
2024-02-08T10:47:01.707Z,11.9
2024-02-08T10:48:01.668Z,11.9
2024-02-08T10:49:01.587Z,11.9
2024-02-08T10:50:01.170Z,11.9
2024-02-08T10:51:02.457Z,11.9
2024-02-08T10:52:00.911Z,12.4
2024-02-08T10:53:01.595Z,12.4
2024-02-08T10:54:04.254Z,12.4
2024-02-08T10:55:04.358Z,12.4
2024-02-08T10:56:01.571Z,12.4
2024-02-08T10:57:00.966Z,13.1
2024-02-08T10:58:00.811Z,13.1
2024-02-08T10:59:00.846Z,13.1
2024-02-08T11:00:00.978Z,13.1
2024-02-08T11:01:00.964Z,13.1
2024-02-08T11:02:03.722Z,11.5
2024-02-08T11:03:02.174Z,11.5
2024-02-08T11:04:01.801Z,11.5
2024-02-08T11:05:03.158Z,11.5
2024-02-08T11:06:02.261Z,11.5
2024-02-08T11:07:01.419Z,10.3
2024-02-08T11:08:01.365Z,10.3
2024-02-08T11:09:00.827Z,10.3
2024-02-08T11:10:00.799Z,10.3
2024-02-08T11:11:05.328Z,10.3
2024-02-08T11:12:07.913Z,10.4
2024-02-08T11:13:04.914Z,10.4
2024-02-08T11:14:01.386Z,10.4
2024-02-08T11:15:07.993Z,10.4
2024-02-08T11:16:04.152Z,10.4
2024-02-08T11:17:02.110Z,9.8
2024-02-08T11:18:02.491Z,9.8
2024-02-08T11:19:01.099Z,9.8
2024-02-08T11:20:01.001Z,9.8
2024-02-08T11:21:03.330Z,9.8
2024-02-08T11:22:31.630Z,9.6
2024-02-08T11:23:08.844Z,9.6
2024-02-08T11:24:00.860Z,9.6
2024-02-08T11:25:02.548Z,9.6
2024-02-08T11:26:08.236Z,9.6
2024-02-08T11:27:00.781Z,11.8
2024-02-08T11:28:18.985Z,11.8
2024-02-08T11:29:01.715Z,11.8
2024-02-08T11:30:00.694Z,11.8
2024-02-08T11:31:11.568Z,11.8
2024-02-08T11:32:00.688Z,10.5
2024-02-08T11:33:03.552Z,10.5
2024-02-08T11:34:16.864Z,10.5
2024-02-08T11:35:00.914Z,10.5
2024-02-08T11:36:02.614Z,10.5
2024-02-08T11:37:16.736Z,11.9
2024-02-08T11:38:15.965Z,11.9
2024-02-08T11:39:00.844Z,11.9
2024-02-08T11:40:02.097Z,11.9
2024-02-08T11:41:08.164Z,11.9
2024-02-08T11:42:00.705Z,14.1
2024-02-08T11:43:00.773Z,14.1
2024-02-08T11:44:02.137Z,14.1
2024-02-08T11:45:00.757Z,14.1
2024-02-08T11:46:01.433Z,14.1
2024-02-08T11:47:00.846Z,12.0
2024-02-08T11:48:03.027Z,12.0
2024-02-08T11:49:04.250Z,12.0
2024-02-08T11:50:00.835Z,12.0
2024-02-08T11:51:17.718Z,12.0
2024-02-08T11:52:01.590Z,10.9
2024-02-08T11:53:01.104Z,10.9
2024-02-08T11:54:01.318Z,10.9
2024-02-08T11:55:05.772Z,10.9
2024-02-08T11:56:02.704Z,10.9
2024-02-08T11:57:00.928Z,11.1
2024-02-08T11:58:04.798Z,11.1
2024-02-08T11:59:01.872Z,11.1
2024-02-08T12:00:00.906Z,11.1
2024-02-08T12:01:02.686Z,11.1
2024-02-08T12:02:01.259Z,9.6
2024-02-08T12:03:01.095Z,9.6
2024-02-08T12:04:01.002Z,9.6
2024-02-08T12:05:01.840Z,9.6
2024-02-08T12:06:00.679Z,9.6
2024-02-08T12:07:03.344Z,12.0
2024-02-08T12:08:08.887Z,12.0
2024-02-08T12:09:01.309Z,12.0
2024-02-08T12:10:00.942Z,12.0
2024-02-08T12:11:00.788Z,12.0
2024-02-08T12:12:00.814Z,10.1
2024-02-08T12:13:00.737Z,10.1
2024-02-08T12:14:10.384Z,10.1
2024-02-08T12:15:00.826Z,10.1
2024-02-08T12:16:00.726Z,10.1
2024-02-08T12:17:00.822Z,10.6
2024-02-08T12:18:05.265Z,10.6
2024-02-08T12:19:00.932Z,10.6
2024-02-08T12:20:01.006Z,10.6
2024-02-08T12:21:00.773Z,10.6
2024-02-08T12:22:01.782Z,12.0
2024-02-08T12:23:00.679Z,12.0
2024-02-08T12:24:01.219Z,12.0
2024-02-08T12:25:01.316Z,12.0
2024-02-08T12:26:04.174Z,12.0
2024-02-08T12:27:10.174Z,13.0
2024-02-08T12:28:04.948Z,13.0
2024-02-08T12:29:04.342Z,13.0
2024-02-08T12:30:02.907Z,13.0
2024-02-08T12:31:02.517Z,13.0
2024-02-08T12:32:01.424Z,10.5
2024-02-08T12:33:03.274Z,10.5
2024-02-08T12:34:03.050Z,10.5
2024-02-08T12:35:01.703Z,10.5
2024-02-08T12:36:01.112Z,10.5
2024-02-08T12:37:03.386Z,12.5
2024-02-08T12:38:01.360Z,12.5
2024-02-08T12:39:02.135Z,12.5
2024-02-08T12:40:04.352Z,12.5
2024-02-08T12:41:00.763Z,12.5
2024-02-08T12:42:01.587Z,10.5
2024-02-08T12:43:01.255Z,10.5
2024-02-08T12:44:00.785Z,10.5
2024-02-08T12:45:00.793Z,10.5
2024-02-08T12:46:00.822Z,10.5
2024-02-08T12:47:00.949Z,10.9
2024-02-08T12:48:00.901Z,10.9
2024-02-08T12:49:00.917Z,10.9
2024-02-08T12:50:11.485Z,10.9
2024-02-08T12:51:01.032Z,10.9
2024-02-08T12:52:06.749Z,13.1
2024-02-08T12:53:01.313Z,13.1
2024-02-08T12:54:00.673Z,13.1
2024-02-08T12:55:00.821Z,13.1
2024-02-08T12:56:05.260Z,13.1
2024-02-08T12:57:02.950Z,11.1
2024-02-08T12:58:02.469Z,11.1
2024-02-08T12:59:02.446Z,11.1
2024-02-08T13:00:01.821Z,11.1
2024-02-08T13:01:01.112Z,11.1
2024-02-08T13:02:00.907Z,10.9
2024-02-08T13:03:02.345Z,10.9
2024-02-08T13:04:01.218Z,10.9
2024-02-08T13:05:01.154Z,10.9
2024-02-08T13:06:01.974Z,10.9
2024-02-08T13:07:00.884Z,12.7
2024-02-08T13:08:01.072Z,12.7
2024-02-08T13:09:04.612Z,12.7
2024-02-08T13:10:02.465Z,12.7
2024-02-08T13:11:01.662Z,12.7
2024-02-08T13:12:06.269Z,12.9
2024-02-08T13:13:02.852Z,12.9
2024-02-08T13:14:04.370Z,12.9
2024-02-08T13:15:00.773Z,12.9
2024-02-08T13:16:07.978Z,12.9
2024-02-08T13:17:03.161Z,13.2
2024-02-08T13:18:00.972Z,13.2
2024-02-08T13:19:00.768Z,13.2
2024-02-08T13:20:03.057Z,13.2
2024-02-08T13:21:01.281Z,13.2